Time;durP1;ratioP1;P1;durP2;ratioP2;P2;SDS_P1;SDS_P2;PMS_P1;PMS_P2;Temp;Humidity;BMP_temperature;BMP_pressure;BME280_temperature;BME280_humidity;BME280_pressure;Samples;Min_cycle;Max_cycle;Signal;HPM_P1;HPM_P2
2022/01/23 00:00:17;;;;;;;;;;;;;;;;;;4923269;29;20467;-81
2022/01/23 00:02:47;;;;;;;10.23;5.03;;;;;;;;;;4921316;29;19930;-83
2022/01/23 00:05:13;;;;;;;;;;;;;;;;;;4925396;29;20408;-82
2022/01/23 00:07:40;;;;;;;;;;;;;;;;;;4908969;29;19948;-93
2022/01/23 00:10:09;;;;;;;7.20;4.88;;;;;;;;;;4927607;28;19945;-80
2022/01/23 00:12:42;;;;;;;;;;;;;;;;;;4927102;29;20070;-85
2022/01/23 00:17:53;;;;;;;11.45;5.43;;;;;;;;;;4926407;29;19926;-85
2022/01/23 00:20:19;;;;;;;;;;;;;;;;;;4926050;29;20525;-81
2022/01/23 00:22:49;;;;;;;;;;;;;;;;;;4927835;29;19924;-81
2022/01/23 00:30:45;;;;;;;;;;;;;;;;;;4924489;28;19918;-81
2022/01/23 00:33:11;;;;;;;;;;;;;;;;;;4929840;29;19925;-84
2022/01/23 00:35:37;;;;;;;;;;;;;;;;;;4926730;29;20231;-81
2022/01/23 00:38:03;;;;;;;;;;;;;;;;;;4919826;29;19923;-82
2022/01/23 00:40:29;;;;;;;;;;;;;;;;;;4928951;29;19958;-82
2022/01/23 00:42:58;;;;;;;18.73;6.20;;;;;;;;;;4924275;29;20337;-82
2022/01/23 00:45:30;;;;;;;;;;;;;;;;;;4929440;29;20047;-85
2022/01/23 00:48:03;;;;;;;11.18;6.40;;;;;;;;;;4925349;29;19930;-81
2022/01/23 00:50:29;;;;;;;;;;;;;;;;;;4927596;29;20062;-82
2022/01/23 00:52:55;;;;;;;;;;;;;;;;;;4925870;29;20438;-81
2022/01/23 00:55:21;;;;;;;;;;;;;;;;;;4926327;29;20396;-82
2022/01/23 00:57:47;;;;;;;15.13;6.20;;;;;;;;;;4929689;29;20009;-82
2022/01/23 01:00:13;;;;;;;;;;;;;;;;;;4914302;29;20055;-82
2022/01/23 01:02:39;;;;;;;16.80;7.30;;;;;;;;;;4910860;29;20040;-82
2022/01/23 01:05:05;;;;;;;11.70;7.00;;;;;;;;;;4928821;29;20191;-82
2022/01/23 01:07:31;;;;;;;;;;;;;;;;;;4928189;29;20051;-88
2022/01/23 01:10:02;;;;;;;;;;;;;;;;;;4915369;29;19973;-81
2022/01/23 01:12:37;;;;;;;13.25;6.70;;;;;;;;;;4916505;29;19929;-82
2022/01/23 01:31:27;;;;;;;;;;;;;;;;;;4936511;29;20066;-82
2022/01/23 01:34:00;;;;;;;;;;;;;;;;;;4933974;29;19927;-82
2022/01/23 01:38:52;;;;;;;;;;;;;;;;;;4937188;29;20081;-82
2022/01/23 01:41:18;;;;;;;14.27;8.00;;;;;;;;;;4933095;29;19918;-81
2022/01/23 01:43:44;;;;;;;;;;;;;;;;;;4930155;29;20067;-84
2022/01/23 01:46:10;;;;;;;19.88;6.68;;;;;;;;;;4919536;29;20310;-81
2022/01/23 01:48:36;;;;;;;;;;;;;;;;;;4906466;29;20466;-82
2022/01/23 01:51:05;;;;;;;;;;;;;;;;;;4914086;29;19926;-83
2022/01/23 01:53:31;;;;;;;;;;;;;;;;;;4936366;29;19922;-82
2022/01/23 01:55:58;;;;;;;;;;;;;;;;;;4929701;29;19925;-82
2022/01/23 02:09:24;;;;;;;;;;;;;;;;;;4935731;28;20055;-86
2022/01/23 02:55:26;;;;;;;21.35;7.75;;;;;;;;;;4906230;29;20047;-85
2022/01/23 02:57:56;;;;;;;20.73;8.68;;;;;;;;;;4910143;29;20039;-85
2022/01/23 03:00:25;;;;;;;22.80;8.25;;;;;;;;;;4909419;29;20054;-85
2022/01/23 03:02:55;;;;;;;22.27;8.68;;;;;;;;;;4927751;29;20058;-85
2022/01/23 03:05:40;;;;;;;22.23;8.40;;;;;;;;;;4927783;29;20046;-85
2022/01/23 03:10:58;;;;;;;23.63;9.77;;;;;;;;;;4926278;29;20082;-85
2022/01/23 03:26:57;;;;;;;23.77;12.02;;;;;;;;;;4930384;29;20130;-87
2022/01/23 03:29:26;;;;;;;23.77;10.27;;;;;;;;;;4916589;29;20099;-84
2022/01/23 03:34:24;;;;;;;22.67;10.93;;;;;;;;;;4924425;29;20039;-85
2022/01/23 03:36:50;;;;;;;20.63;10.07;;;;;;;;;;4911630;29;20051;-85
2022/01/23 03:39:17;;;;;;;25.17;10.55;;;;;;;;;;4917018;29;20051;-84
2022/01/23 03:41:44;;;;;;;23.17;10.15;;;;;;;;;;4916198;29;20463;-84
2022/01/23 03:44:11;;;;;;;26.05;9.88;;;;;;;;;;4929990;28;20050;-86
2022/01/23 03:49:31;;;;;;;21.90;10.07;;;;;;;;;;4945417;28;20054;-84
2022/01/23 03:52:08;;;;;;;20.23;9.70;;;;;;;;;;4910353;29;20412;-84
2022/01/23 03:54:35;;;;;;;21.92;10.27;;;;;;;;;;4925162;29;20440;-85
2022/01/23 03:57:01;;;;;;;23.00;9.95;;;;;;;;;;4912653;29;20050;-82
2022/01/23 03:59:28;;;;;;;21.55;9.93;;;;;;;;;;4913634;29;20047;-85
2022/01/23 04:01:54;;;;;;;22.77;9.82;;;;;;;;;;4909627;28;20062;-84
2022/01/23 04:04:40;;;;;;;18.65;9.40;;;;;;;;;;4929478;29;20153;-84
2022/01/23 04:07:08;;;;;;;30.20;10.05;;;;;;;;;;4913941;29;20063;-84
2022/01/23 04:09:34;;;;;;;24.67;10.32;;;;;;;;;;4911618;29;20056;-84
2022/01/23 04:12:01;;;;;;;21.17;10.30;;;;;;;;;;4931686;29;20130;-84
2022/01/23 04:14:29;;;;;;;20.65;10.15;;;;;;;;;;4928309;29;20039;-84
2022/01/23 05:00:24;;;;;;;20.60;9.43;;;;;;;;;;4931403;29;20073;-85
2022/01/23 05:05:25;;;;;;;19.50;9.93;;;;;;;;;;4930025;29;20050;-88
2022/01/23 05:07:51;;;;;;;17.45;9.32;;;;;;;;;;4928208;28;20106;-87
2022/01/23 05:10:17;;;;;;;19.20;9.88;;;;;;;;;;4926238;29;20046;-83
2022/01/23 05:12:43;;;;;;;29.33;10.15;;;;;;;;;;4930034;29;20102;-84
2022/01/23 05:15:11;;;;;;;18.23;9.35;;;;;;;;;;4934319;29;20055;-84
2022/01/23 05:17:37;;;;;;;21.80;9.88;;;;;;;;;;4931276;29;20054;-83
2022/01/23 05:20:05;;;;;;;21.30;9.48;;;;;;;;;;4914636;29;20043;-84
2022/01/23 05:22:45;;;;;;;15.88;9.60;;;;;;;;;;4917690;29;20153;-83
2022/01/23 05:25:25;;;;;;;21.23;9.90;;;;;;;;;;4925229;29;20127;-84
2022/01/23 05:27:52;;;;;;;24.48;10.15;;;;;;;;;;4930482;29;20059;-84
2022/01/23 05:30:19;;;;;;;19.17;9.15;;;;;;;;;;4914832;29;20040;-84
2022/01/23 05:32:45;;;;;;;18.98;9.52;;;;;;;;;;4931884;29;20374;-85
2022/01/23 05:35:13;;;;;;;20.27;9.95;;;;;;;;;;4915148;29;20416;-84
2022/01/23 05:37:39;;;;;;;20.00;9.45;;;;;;;;;;4916740;29;20038;-85
2022/01/23 05:40:08;;;;;;;21.88;9.18;;;;;;;;;;4937581;28;20426;-84
2022/01/23 05:42:34;;;;;;;24.98;10.40;;;;;;;;;;4925355;29;20051;-84
2022/01/23 05:45:00;;;;;;;19.08;9.35;;;;;;;;;;4930640;29;20039;-83
2022/01/23 05:47:27;;;;;;;18.63;10.63;;;;;;;;;;4929646;29;20099;-84
2022/01/23 05:49:53;;;;;;;23.05;10.88;;;;;;;;;;4912610;29;20365;-84
2022/01/23 05:52:19;;;;;;;21.10;10.05;;;;;;;;;;4914947;29;20053;-85
2022/01/23 05:54:45;;;;;;;28.92;9.88;;;;;;;;;;4917117;29;20071;-84
2022/01/23 05:57:11;;;;;;;21.13;9.57;;;;;;;;;;4932966;29;20078;-85
2022/01/23 05:59:37;;;;;;;21.20;10.18;;;;;;;;;;4913754;29;20133;-85
2022/01/23 06:02:03;;;;;;;24.05;10.40;;;;;;;;;;4929943;29;20061;-84
2022/01/23 06:04:29;;;;;;;22.48;10.32;;;;;;;;;;4911353;29;20047;-84
2022/01/23 06:06:57;;;;;;;26.83;11.57;;;;;;;;;;4902318;29;20349;-86
2022/01/23 06:09:24;;;;;;;25.95;11.15;;;;;;;;;;4933038;29;20232;-84
2022/01/23 06:11:50;;;;;;;32.78;12.02;;;;;;;;;;4927085;29;20479;-84
2022/01/23 06:14:17;;;;;;;32.45;11.52;;;;;;;;;;4913437;29;20570;-84
2022/01/23 06:16:43;;;;;;;33.85;12.30;;;;;;;;;;4914765;29;20375;-84
2022/01/23 06:19:09;;;;;;;28.02;11.70;;;;;;;;;;4904239;29;20122;-85
2022/01/23 06:21:35;;;;;;;29.08;11.38;;;;;;;;;;4926402;29;20039;-85
2022/01/23 06:24:06;;;;;;;26.20;11.63;;;;;;;;;;4898999;29;20438;-83
2022/01/23 06:26:49;;;;;;;26.55;11.35;;;;;;;;;;4918101;29;20051;-83
2022/01/23 06:29:16;;;;;;;36.22;11.68;;;;;;;;;;4909419;29;20375;-84
2022/01/23 06:31:42;;;;;;;25.35;11.20;;;;;;;;;;4907495;29;20648;-84
2022/01/23 06:34:10;;;;;;;27.08;12.18;;;;;;;;;;4930110;29;20042;-85
2022/01/23 06:36:36;;;;;;;34.33;12.32;;;;;;;;;;4948037;28;20113;-84
2022/01/23 06:39:03;;;;;;;33.00;12.45;;;;;;;;;;4933683;29;20062;-85
2022/01/23 06:41:29;;;;;;;34.60;12.57;;;;;;;;;;4931515;29;20043;-83
2022/01/23 06:43:55;;;;;;;45.55;13.63;;;;;;;;;;4911934;29;20046;-83
2022/01/23 06:46:21;;;;;;;39.75;12.73;;;;;;;;;;4910475;29;20039;-82
2022/01/23 06:48:47;;;;;;;30.83;11.82;;;;;;;;;;4910876;29;20054;-83
2022/01/23 06:51:14;;;;;;;27.40;11.13;;;;;;;;;;4912510;29;20179;-80
2022/01/23 06:53:40;;;;;;;26.77;10.90;;;;;;;;;;4914782;29;20043;-80
2022/01/23 06:56:06;;;;;;;28.23;10.70;;;;;;;;;;4895466;29;20138;-80
2022/01/23 06:58:32;;;;;;;28.58;11.27;;;;;;;;;;4926213;29;20031;-80
2022/01/23 07:00:58;;;;;;;35.88;10.57;;;;;;;;;;4912406;29;20054;-83
2022/01/23 07:03:24;;;;;;;27.38;9.77;;;;;;;;;;4927646;29;20051;-82
2022/01/23 07:05:50;;;;;;;25.52;9.75;;;;;;;;;;4912890;29;20039;-84
2022/01/23 07:08:17;;;;;;;24.35;9.23;;;;;;;;;;4926739;29;20047;-83
2022/01/23 07:10:43;;;;;;;29.67;9.52;;;;;;;;;;4914081;29;20468;-82
2022/01/23 07:13:09;;;;;;;25.08;9.07;;;;;;;;;;4929024;29;20039;-82
2022/01/23 07:15:35;;;;;;;25.45;9.48;;;;;;;;;;4929178;29;20045;-85
2022/01/23 07:18:01;;;;;;;19.05;8.35;;;;;;;;;;4917590;29;20122;-81
2022/01/23 07:20:27;;;;;;;21.67;9.98;;;;;;;;;;4928427;29;20112;-81
2022/01/23 07:22:54;;;;;;;30.60;9.93;;;;;;;;;;4914048;29;20031;-81
2022/01/23 07:25:20;;;;;;;27.13;9.30;;;;;;;;;;4928911;29;20122;-81
2022/01/23 07:27:50;;;;;;;25.10;9.30;;;;;;;;;;4916172;29;20050;-83
2022/01/23 07:30:31;;;;;;;25.05;9.55;;;;;;;;;;4912439;29;20182;-81
2022/01/23 07:32:57;;;;;;;21.70;9.77;;;;;;;;;;4934704;29;20039;-79
2022/01/23 07:35:23;;;;;;;28.23;10.10;;;;;;;;;;4927726;29;20051;-81
2022/01/23 07:37:49;;;;;;;29.05;10.30;;;;;;;;;;4917060;29;20078;-86
2022/01/23 07:40:15;;;;;;;29.00;11.13;;;;;;;;;;4913660;29;20375;-81
2022/01/23 07:42:41;;;;;;;40.20;11.70;;;;;;;;;;4910454;29;20102;-81
2022/01/23 07:45:08;;;;;;;29.55;11.52;;;;;;;;;;4900004;29;20044;-84
2022/01/23 07:47:34;;;;;;;31.80;11.40;;;;;;;;;;4916571;29;20051;-81
2022/01/23 07:50:02;;;;;;;36.67;11.65;;;;;;;;;;4929491;29;20436;-81
2022/01/23 07:52:30;;;;;;;30.75;11.05;;;;;;;;;;4931033;29;20071;-81
2022/01/23 07:54:56;;;;;;;38.15;12.02;;;;;;;;;;4916317;29;20047;-80
2022/01/23 07:57:22;;;;;;;37.13;12.07;;;;;;;;;;4916764;29;20143;-82
2022/01/23 07:59:48;;;;;;;34.85;12.07;;;;;;;;;;4911047;29;20071;-84
2022/01/23 08:02:15;;;;;;;46.00;14.10;;;;;;;;;;4911327;28;20047;-80
2022/01/23 08:04:42;;;;;;;34.67;13.23;;;;;;;;;;4895850;29;20570;-80
2022/01/23 08:10:05;;;;;;;45.55;13.55;;;;;;;;;;4913353;29;20298;-87
2022/01/23 08:12:31;;;;;;;42.83;12.35;;;;;;;;;;4914074;29;20043;-79
2022/01/23 08:14:58;;;;;;;53.65;13.15;;;;;;;;;;4911081;29;20059;-84
2022/01/23 08:17:24;;;;;;;46.63;13.77;;;;;;;;;;4925084;29;20051;-79
2022/01/23 08:19:55;;;;;;;44.75;13.68;;;;;;;;;;4924622;29;20043;-83
2022/01/23 08:22:22;;;;;;;49.88;14.23;;;;;;;;;;4907679;29;20202;-81
2022/01/23 08:24:49;;;;;;;59.83;15.38;;;;;;;;;;4912547;29;20052;-79
2022/01/23 08:27:15;;;;;;;28.65;11.65;;;;;;;;;;4916431;29;20067;-78
2022/01/23 08:32:26;;;;;;;35.92;13.25;;;;;;;;;;4942652;28;20382;-78
2022/01/23 08:34:52;;;;;;;37.42;13.80;;;;;;;;;;4932019;29;20051;-80
2022/01/23 08:37:19;;;;;;;29.92;10.95;;;;;;;;;;4916115;29;20059;-78
2022/01/23 08:39:45;;;;;;;27.40;11.00;;;;;;;;;;4938688;29;20055;-83
2022/01/23 08:42:18;;;;;;;24.13;9.98;;;;;;;;;;4934805;29;20375;-79
2022/01/23 08:44:48;;;;;;;17.65;8.38;;;;;;;;;;4918773;29;20514;-79
2022/01/23 08:47:14;;;;;;;17.67;8.65;;;;;;;;;;4915084;29;20043;-77
2022/01/23 08:49:45;;;;;;;16.00;8.27;;;;;;;;;;4915680;29;20371;-77
2022/01/23 08:52:12;;;;;;;19.75;8.52;;;;;;;;;;4918750;29;20131;-77
2022/01/23 08:54:38;;;;;;;17.92;8.00;;;;;;;;;;4933272;29;20047;-78
2022/01/23 08:57:05;;;;;;;15.77;8.73;;;;;;;;;;4913329;29;20359;-82
2022/01/23 08:59:31;;;;;;;16.75;8.93;;;;;;;;;;4933386;29;20043;-78
2022/01/23 09:01:57;;;;;;;13.25;8.02;;;;;;;;;;4933779;29;20122;-79
2022/01/23 09:04:23;;;;;;;15.65;8.48;;;;;;;;;;4914590;29;20047;-78
2022/01/23 09:06:49;;;;;;;16.88;8.82;;;;;;;;;;4952765;28;20530;-82
2022/01/23 09:09:18;;;;;;;16.13;8.55;;;;;;;;;;4915948;29;20071;-85
2022/01/23 09:12:03;;;;;;;12.75;7.60;;;;;;;;;;4919410;29;20035;-82
2022/01/23 09:14:29;;;;;;;12.10;7.10;;;;;;;;;;4936092;29;20130;-82
2022/01/23 09:16:56;;;;;;;14.30;7.43;;;;;;;;;;4918217;29;20372;-82
2022/01/23 09:19:22;;;;;;;14.85;7.30;;;;;;;;;;4933728;29;20082;-82
2022/01/23 09:21:49;;;;;;;12.48;7.75;;;;;;;;;;4933270;29;20391;-79
2022/01/23 09:24:16;;;;;;;12.75;7.90;;;;;;;;;;4915783;29;20435;-81
2022/01/23 09:26:45;;;;;;;11.52;7.05;;;;;;;;;;4918363;29;20062;-83
2022/01/23 09:29:15;;;;;;;15.38;8.15;;;;;;;;;;4937941;29;20058;-84
2022/01/23 09:31:52;;;;;;;14.48;7.70;;;;;;;;;;4934869;29;20141;-80
2022/01/23 09:34:19;;;;;;;12.43;7.78;;;;;;;;;;4938194;29;20047;-81
2022/01/23 09:36:45;;;;;;;12.10;7.95;;;;;;;;;;4938476;29;20052;-80
2022/01/23 09:39:15;;;;;;;12.48;7.43;;;;;;;;;;4937618;29;20043;-79
2022/01/23 09:41:46;;;;;;;11.88;7.18;;;;;;;;;;4928189;29;20047;-82
2022/01/23 09:44:13;;;;;;;14.35;7.05;;;;;;;;;;4918302;29;20121;-85
2022/01/23 09:46:39;;;;;;;10.50;7.05;;;;;;;;;;4909430;29;20429;-85
2022/01/23 09:49:05;;;;;;;9.40;6.03;;;;;;;;;;4918482;28;20075;-81
2022/01/23 09:51:32;;;;;;;14.32;6.05;;;;;;;;;;4915406;29;20153;-86
2022/01/23 09:53:58;;;;;;;10.13;5.78;;;;;;;;;;4946798;29;20138;-85
2022/01/23 09:56:27;;;;;;;7.57;5.43;;;;;;;;;;4932538;29;20058;-83
2022/01/23 09:58:54;;;;;;;7.78;5.70;;;;;;;;;;4919621;29;20190;-84
2022/01/23 10:01:22;;;;;;;6.90;5.50;;;;;;;;;;4910001;29;20047;-86
2022/01/23 10:03:49;;;;;;;7.97;5.28;;;;;;;;;;4916208;29;20059;-88
2022/01/23 10:06:15;;;;;;;8.60;5.18;;;;;;;;;;4934343;29;20047;-87
2022/01/23 10:08:42;;;;;;;8.55;5.18;;;;;;;;;;4900189;29;20044;-85
2022/01/23 10:11:11;;;;;;;7.32;5.63;;;;;;;;;;4929127;29;20043;-84
2022/01/23 10:13:38;;;;;;;9.38;5.05;;;;;;;;;;4910035;29;20395;-86
2022/01/23 10:16:04;;;;;;;6.95;4.95;;;;;;;;;;4936642;29;20074;-84
2022/01/23 10:18:33;;;;;;;6.50;4.50;;;;;;;;;;4917600;29;20050;-89
2022/01/23 10:20:59;;;;;;;7.22;5.03;;;;;;;;;;4918850;29;20402;-93
2022/01/23 10:23:26;;;;;;;7.47;4.20;;;;;;;;;;4930329;29;20052;-89
2022/01/23 10:25:53;;;;;;;7.30;4.68;;;;;;;;;;4906825;29;20071;-91
2022/01/23 10:28:21;;;;;;;5.93;4.85;;;;;;;;;;4950951;29;20094;-85
2022/01/23 10:30:50;;;;;;;6.32;4.32;;;;;;;;;;4914005;29;20061;-84
2022/01/23 10:33:23;;;;;;;5.75;4.45;;;;;;;;;;4913389;29;20047;-84
2022/01/23 10:35:55;;;;;;;8.07;4.80;;;;;;;;;;4912505;28;20055;-80
2022/01/23 10:38:22;;;;;;;7.32;4.60;;;;;;;;;;4916349;29;20414;-84
2022/01/23 10:40:54;;;;;;;6.97;4.30;;;;;;;;;;4915668;29;20052;-88
2022/01/23 10:48:40;;;;;;;7.20;4.90;;;;;;;;;;4924402;29;20083;-78
2022/01/23 10:51:22;;;;;;;8.77;5.00;;;;;;;;;;4927755;29;20412;-80
2022/01/23 10:54:07;;;;;;;9.43;5.53;;;;;;;;;;4930432;29;20054;-79
2022/01/23 10:56:35;;;;;;;6.78;4.82;;;;;;;;;;4933232;29;20063;-80
2022/01/23 10:59:03;;;;;;;6.35;4.57;;;;;;;;;;4909488;28;20055;-82
2022/01/23 11:01:29;;;;;;;6.63;4.80;;;;;;;;;;4929410;29;20047;-81
2022/01/23 11:04:06;;;;;;;5.00;4.45;;;;;;;;;;4910646;29;20055;-78
2022/01/23 11:06:32;;;;;;;5.05;4.47;;;;;;;;;;4926192;29;20049;-82
2022/01/23 11:09:11;;;;;;;6.03;4.43;;;;;;;;;;4914195;29;20167;-77
2022/01/23 11:11:44;;;;;;;6.75;4.38;;;;;;;;;;4907219;29;20052;-76
2022/01/23 11:20:00;;;;;;;5.68;4.22;;;;;;;;;;4871377;29;20051;-75
2022/01/23 11:22:32;;;;;;;5.60;3.78;;;;;;;;;;4899675;29;20420;-78
2022/01/23 11:25:04;;;;;;;5.97;4.43;;;;;;;;;;4914992;29;20051;-77
2022/01/23 11:27:34;;;;;;;5.10;4.15;;;;;;;;;;4899255;29;20054;-78
2022/01/23 11:30:08;;;;;;;5.85;4.07;;;;;;;;;;4913830;29;20051;-79
2022/01/23 11:32:37;;;;;;;4.45;3.75;;;;;;;;;;4898506;29;20754;-84
2022/01/23 11:35:08;;;;;;;4.93;3.70;;;;;;;;;;4897900;29;20134;-80
2022/01/23 11:37:34;;;;;;;6.75;3.63;;;;;;;;;;4898205;29;20051;-81
2022/01/23 11:40:08;;;;;;;6.50;4.57;;;;;;;;;;4900301;29;20428;-78
2022/01/23 11:51:21;;;;;;;5.25;4.20;;;;;;;;;;4908301;29;20055;-79
2022/01/23 11:53:54;;;;;;;4.78;3.38;;;;;;;;;;4907563;29;20062;-78
2022/01/23 11:56:35;;;;;;;4.30;3.67;;;;;;;;;;4910973;29;20051;-81
2022/01/23 11:59:12;;;;;;;5.45;3.58;;;;;;;;;;4891563;29;20103;-80
2022/01/23 12:01:40;;;;;;;4.95;3.55;;;;;;;;;;4911978;29;20051;-80
2022/01/23 12:04:11;;;;;;;4.18;3.35;;;;;;;;;;4895736;29;20177;-78
2022/01/23 12:06:39;;;;;;;4.05;3.50;;;;;;;;;;4907914;29;20052;-79
2022/01/23 12:09:18;;;;;;;5.32;3.47;;;;;;;;;;4929030;29;20447;-77
2022/01/23 12:12:02;;;;;;;4.82;3.78;;;;;;;;;;4926205;29;20395;-78
2022/01/23 12:17:03;;;;;;;4.43;3.30;;;;;;;;;;4932196;29;20055;-78
2022/01/23 12:19:50;;;;;;;4.47;3.90;;;;;;;;;;4915055;29;20113;-78
2022/01/23 12:22:15;;;;;;;;;;;;;;;;;;4925607;29;20126;-80
2022/01/23 12:24:41;;;;;;;;;;;;;;;;;;4929108;29;20013;-77
2022/01/23 12:27:07;;;;;;;;;;;;;;;;;;4915616;29;19930;-78
2022/01/23 12:29:33;;;;;;;;;;;;;;;;;;4929865;29;19922;-77
2022/01/23 12:31:59;;;;;;;;;;;;;;;;;;4928744;29;20017;-80
2022/01/23 12:34:25;;;;;;;;;;;;;;;;;;4930456;29;19929;-76
2022/01/23 12:36:51;;;;;;;;;;;;;;;;;;4911243;29;20359;-76
2022/01/23 12:39:18;;;;;;;;;;;;;;;;;;4909885;29;20429;-82
2022/01/23 12:41:44;;;;;;;;;;;;;;;;;;4927972;29;19981;-75
2022/01/23 12:44:10;;;;;;;;;;;;;;;;;;4930419;29;19927;-77
2022/01/23 12:46:36;;;;;;;;;;;;;;;;;;4925671;29;19923;-77
2022/01/23 12:49:03;;;;;;;;;;;;;;;;;;4927502;28;20287;-78
2022/01/23 12:51:29;;;;;;;;;;;;;;;;;;4929317;29;20013;-76
2022/01/23 12:53:55;;;;;;;;;;;;;;;;;;4932632;29;20434;-77
2022/01/23 12:56:21;;;;;;;;;;;;;;;;;;4933050;29;20018;-76
2022/01/23 12:58:47;;;;;;;;;;;;;;;;;;4931464;29;19927;-77
2022/01/23 13:01:13;;;;;;;;;;;;;;;;;;4928592;29;19922;-76
2022/01/23 13:03:42;;;;;;;;;;;;;;;;;;4925357;28;19923;-77
2022/01/23 13:06:10;;;;;;;;;;;;;;;;;;4933286;29;20022;-75
2022/01/23 13:08:46;;;;;;;;;;;;;;;;;;4932069;29;19922;-76
2022/01/23 13:13:58;;;;;;;;;;;;;;;;;;4927312;29;19926;-76
2022/01/23 13:16:33;;;;;;;;;;;;;;;;;;4933431;29;19930;-77
2022/01/23 13:30:24;;;;;;;;;;;;;;;;;;4932027;29;19981;-78
2022/01/23 13:32:52;;;;;;;;;;;;;;;;;;4934042;29;19930;-76
2022/01/23 13:35:19;;;;;;;;;;;;;;;;;;4920261;29;19965;-78
2022/01/23 13:37:45;;;;;;;;;;;;;;;;;;4933285;29;19932;-76
2022/01/23 13:40:13;;;;;;;;;;;;;;;;;;4929651;29;19926;-76
2022/01/23 13:53:35;;;;;;;;;;;;;;;;;;4932269;29;19977;-73
2022/01/23 13:58:53;;;;;;;;;;;;;;;;;;4929647;29;19997;-73
2022/01/23 14:03:53;;;;;;;12.32;5.85;;;;;;;;;;4926731;29;20048;-75
2022/01/23 14:06:19;;;;;;;10.30;5.72;;;;;;;;;;4954240;29;20047;-75
2022/01/23 14:09:06;;;;;;;8.25;5.80;;;;;;;;;;4935320;29;20098;-75
2022/01/23 14:11:33;;;;;;;8.27;5.20;;;;;;;;;;4945729;29;20039;-74
2022/01/23 14:14:09;;;;;;;6.50;4.82;;;;;;;;;;4934148;29;20057;-75
2022/01/23 14:16:35;;;;;;;7.80;5.25;;;;;;;;;;4945349;29;20054;-75
2022/01/23 14:19:18;;;;;;;9.65;6.63;;;;;;;;;;4919150;29;20459;-77
2022/01/23 14:21:46;;;;;;;9.70;5.60;;;;;;;;;;4933936;29;20057;-74
2022/01/23 14:24:19;;;;;;;8.93;5.63;;;;;;;;;;4936870;29;20043;-74
2022/01/23 14:26:59;;;;;;;9.67;5.77;;;;;;;;;;4936507;29;20055;-74
2022/01/23 14:29:26;;;;;;;7.05;5.93;;;;;;;;;;4935518;29;20069;-74
2022/01/23 14:32:17;;;;;;;8.02;5.20;;;;;;;;;;4935260;29;20169;-74
2022/01/23 14:34:43;;;;;;;11.57;5.47;;;;;;;;;;4934919;29;20133;-74
2022/01/23 14:37:09;;;;;;;10.95;5.07;;;;;;;;;;4936335;29;20478;-74
2022/01/23 14:39:35;;;;;;;8.48;5.13;;;;;;;;;;4951472;29;20047;-74
2022/01/23 14:42:15;;;;;;;10.38;5.65;;;;;;;;;;4930287;29;20194;-75
2022/01/23 14:44:41;;;;;;;9.00;5.00;;;;;;;;;;4931565;29;20047;-73
2022/01/23 14:47:08;;;;;;;7.43;5.13;;;;;;;;;;4935209;29;20051;-73
2022/01/23 14:49:36;;;;;;;14.00;5.53;;;;;;;;;;4932887;29;20054;-73
2022/01/23 14:52:03;;;;;;;9.85;5.30;;;;;;;;;;4927125;29;20046;-75
2022/01/23 14:54:31;;;;;;;8.57;5.40;;;;;;;;;;4916654;29;20368;-75
2022/01/23 14:57:06;;;;;;;8.27;5.68;;;;;;;;;;4919418;29;20377;-75
2022/01/23 14:59:32;;;;;;;;;;;;;;;;;;4916882;29;20047;-74
2022/01/23 15:01:59;;;;;;;10.77;6.15;;;;;;;;;;4915703;29;19923;-74
2022/01/23 15:04:25;;;;;;;7.82;5.18;;;;;;;;;;4916393;29;20059;-75
2022/01/23 15:06:52;;;;;;;14.75;6.22;;;;;;;;;;4901050;29;20058;-75
2022/01/23 15:09:19;;;;;;;14.88;7.15;;;;;;;;;;4914753;29;20044;-77
2022/01/23 15:11:45;;;;;;;9.77;6.55;;;;;;;;;;4912081;29;20036;-76
2022/01/23 15:14:13;;;;;;;10.68;6.25;;;;;;;;;;4911054;29;20040;-75
2022/01/23 15:16:39;;;;;;;7.97;5.45;;;;;;;;;;4904420;29;20059;-77
2022/01/23 15:19:06;;;;;;;10.95;6.35;;;;;;;;;;4896689;29;20538;-78
2022/01/23 15:21:33;;;;;;;10.13;6.28;;;;;;;;;;4910446;29;20510;-77
2022/01/23 15:23:59;;;;;;;9.88;5.18;;;;;;;;;;4893841;29;20051;-76
2022/01/23 15:26:29;;;;;;;11.90;5.82;;;;;;;;;;4932510;29;20098;-76
2022/01/23 15:28:56;;;;;;;13.93;7.70;;;;;;;;;;4927209;29;20062;-75
2022/01/23 15:31:22;;;;;;;11.18;7.13;;;;;;;;;;4916761;29;20039;-76
2022/01/23 15:33:48;;;;;;;11.48;6.90;;;;;;;;;;4894075;29;20139;-75
2022/01/23 15:36:14;;;;;;;11.65;7.15;;;;;;;;;;4889665;29;20444;-76
2022/01/23 15:38:43;;;;;;;8.10;6.22;;;;;;;;;;4916465;29;20130;-77
2022/01/23 15:41:09;;;;;;;9.88;6.35;;;;;;;;;;4884579;29;20039;-77
2022/01/23 15:43:36;;;;;;;9.85;6.13;;;;;;;;;;4899500;29;20043;-75
2022/01/23 15:46:03;;;;;;;9.55;6.90;;;;;;;;;;4882487;29;20055;-75
2022/01/23 15:48:30;;;;;;;11.95;6.85;;;;;;;;;;4900437;29;20044;-77
2022/01/23 15:51:00;;;;;;;8.95;6.10;;;;;;;;;;4911607;29;20521;-77
2022/01/23 15:53:26;;;;;;;10.45;6.40;;;;;;;;;;4897742;29;20063;-77
2022/01/23 15:55:52;;;;;;;9.63;6.57;;;;;;;;;;4893143;29;20043;-76
2022/01/23 15:58:18;;;;;;;11.93;6.05;;;;;;;;;;4912317;29;20051;-76
2022/01/23 16:00:45;;;;;;;10.73;7.05;;;;;;;;;;4897903;29;20052;-77
2022/01/23 16:03:11;;;;;;;12.65;6.70;;;;;;;;;;4910648;29;20040;-77
2022/01/23 16:05:37;;;;;;;13.50;6.60;;;;;;;;;;4912605;29;20060;-81
2022/01/23 16:08:03;;;;;;;12.68;7.10;;;;;;;;;;4918190;29;20043;-77
2022/01/23 16:10:30;;;;;;;12.27;6.70;;;;;;;;;;4924823;29;20113;-77
2022/01/23 16:12:56;;;;;;;11.90;6.93;;;;;;;;;;4929236;29;20078;-78
2022/01/23 16:15:22;;;;;;;8.73;5.85;;;;;;;;;;4935630;29;20134;-80
2022/01/23 16:17:49;;;;;;;9.93;5.88;;;;;;;;;;4911537;29;20078;-76
2022/01/23 16:20:16;;;;;;;8.43;5.75;;;;;;;;;;4928281;29;20498;-77
2022/01/23 16:22:42;;;;;;;12.13;7.18;;;;;;;;;;4917313;29;20051;-77
2022/01/23 16:25:10;;;;;;;10.88;6.13;;;;;;;;;;4936681;29;20051;-74
2022/01/23 16:27:36;;;;;;;9.35;6.22;;;;;;;;;;4916271;29;20051;-76
2022/01/23 16:30:04;;;;;;;10.20;6.30;;;;;;;;;;4932807;29;20061;-75
2022/01/23 16:32:30;;;;;;;9.27;6.85;;;;;;;;;;4933523;29;20058;-76
2022/01/23 16:34:56;;;;;;;9.68;6.68;;;;;;;;;;4912855;29;20097;-75
2022/01/23 16:37:22;;;;;;;12.18;6.43;;;;;;;;;;4913538;29;20480;-75
2022/01/23 16:39:48;;;;;;;9.05;6.72;;;;;;;;;;4917626;29;20055;-74
2022/01/23 16:42:14;;;;;;;10.88;6.95;;;;;;;;;;4907575;29;20506;-73
2022/01/23 16:44:40;;;;;;;11.25;7.68;;;;;;;;;;4928535;29;20046;-74
2022/01/23 16:47:08;;;;;;;11.77;8.10;;;;;;;;;;4922571;29;20059;-76
2022/01/23 16:49:34;;;;;;;13.93;7.85;;;;;;;;;;4922719;29;20048;-76
2022/01/23 16:52:00;;;;;;;13.13;9.30;;;;;;;;;;4928037;29;20438;-76
2022/01/23 16:54:26;;;;;;;12.35;8.73;;;;;;;;;;4910975;29;20441;-84
2022/01/23 16:56:52;;;;;;;11.57;8.55;;;;;;;;;;4915515;29;20864;-76
2022/01/23 16:59:19;;;;;;;11.50;8.60;;;;;;;;;;4950569;28;20445;-73
2022/01/23 17:01:46;;;;;;;10.25;7.00;;;;;;;;;;4929823;29;20443;-75
2022/01/23 17:04:16;;;;;;;11.45;7.13;;;;;;;;;;4947538;28;20446;-74
2022/01/23 17:06:42;;;;;;;10.15;7.55;;;;;;;;;;4913584;29;20441;-74
2022/01/23 17:09:09;;;;;;;10.90;7.10;;;;;;;;;;4942553;28;20490;-74
2022/01/23 17:11:36;;;;;;;8.93;6.72;;;;;;;;;;4950124;29;20444;-74
2022/01/23 17:14:02;;;;;;;10.63;7.37;;;;;;;;;;4927872;28;20445;-76
2022/01/23 17:16:29;;;;;;;9.85;6.60;;;;;;;;;;4928360;29;20486;-75
2022/01/23 17:18:55;;;;;;;9.35;7.10;;;;;;;;;;4932601;29;20526;-75
2022/01/23 17:21:22;;;;;;;9.98;7.07;;;;;;;;;;4950217;29;20456;-75
2022/01/23 17:23:48;;;;;;;9.33;7.43;;;;;;;;;;4935860;28;20433;-75
2022/01/23 17:26:14;;;;;;;12.13;8.07;;;;;;;;;;4934407;29;20433;-75
2022/01/23 17:28:41;;;;;;;12.63;8.40;;;;;;;;;;4950326;28;20429;-77
2022/01/23 17:31:07;;;;;;;10.73;7.25;;;;;;;;;;4931154;29;20795;-77
2022/01/23 17:33:33;;;;;;;9.88;7.20;;;;;;;;;;4945214;28;20430;-78
2022/01/23 17:35:59;;;;;;;9.27;7.50;;;;;;;;;;4930564;29;20443;-77
2022/01/23 17:38:25;;;;;;;11.13;8.32;;;;;;;;;;4936732;29;20434;-77
2022/01/23 17:40:51;;;;;;;13.57;9.90;;;;;;;;;;4936349;29;20441;-77
2022/01/23 17:43:18;;;;;;;12.63;8.00;;;;;;;;;;4933271;29;20890;-74
2022/01/23 17:45:52;;;;;;;11.30;8.47;;;;;;;;;;4920169;29;20817;-75
2022/01/23 17:50:57;;;;;;;11.20;7.60;;;;;;;;;;4944470;28;20554;-75
2022/01/23 17:53:24;;;;;;;10.55;6.90;;;;;;;;;;4949623;28;20437;-75
2022/01/23 17:55:50;;;;;;;8.30;6.78;;;;;;;;;;4931922;29;20478;-75
2022/01/23 17:58:16;;;;;;;8.73;6.63;;;;;;;;;;4914992;29;20516;-76
2022/01/23 18:00:43;;;;;;;7.97;6.50;;;;;;;;;;4947996;29;20434;-76
2022/01/23 18:03:12;;;;;;;8.57;6.40;;;;;;;;;;4929835;29;20964;-76
2022/01/23 18:05:39;;;;;;;6.47;5.80;;;;;;;;;;4949340;28;20469;-75
2022/01/23 18:08:05;;;;;;;8.85;6.40;;;;;;;;;;4952808;28;20512;-76
2022/01/23 18:10:32;;;;;;;7.22;5.95;;;;;;;;;;4907896;29;20515;-75
2022/01/23 18:12:58;;;;;;;8.48;6.05;;;;;;;;;;4928848;29;20435;-75
2022/01/23 18:15:24;;;;;;;10.15;6.25;;;;;;;;;;4942162;28;20539;-75
2022/01/23 18:17:50;;;;;;;7.95;6.45;;;;;;;;;;4929172;29;20910;-74
2022/01/23 18:20:17;;;;;;;8.45;6.20;;;;;;;;;;4928670;29;20846;-74
2022/01/23 18:22:43;;;;;;;7.55;6.20;;;;;;;;;;4931427;28;20434;-75
2022/01/23 18:25:09;;;;;;;7.53;5.72;;;;;;;;;;4913208;29;20564;-75